Wanborough, United Kingdom
Current Conditions -  °F | °C
As of 1:23 AM on Friday 28 Nov 2014 (Local Time) from EGVA Reporting Station
Overcast Overcast  
Wind Chill: 42°   Ceiling: 800
Heat Index: 46°   Visibility: 6mi
Dew Point: 46°   Wind: 9mph
Humidity: 100%   Direction: 80°E
Pressure: 29.54"   Gusts: NA
Location:  51.54°N, 1.7°W
Report Text: EGVA 280123Z AUTO 08008KT 9999 OVC008 08/08 A2954 RMK AO2 $
Loading
Personal Weather Stations






























Interactive Weather Map New forecast layout! Learn more

10-Day Weather Forecast

Advertisements
Track Severe Weather on mobile